sensor_id;sensor_type;location;lat;lon;timestamp;pressure;altitude;pressure_sealevel;temperature;humidity
25232;BME280;13176;51.140;6.290;2024-03-07T00:02:21;101759.41;;;10.61;74.22
25232;BME280;13176;51.140;6.290;2024-03-07T00:04:47;101736.72;;;10.40;74.60
25232;BME280;13176;51.140;6.290;2024-03-07T00:07:14;101761.13;;;10.51;74.29
25232;BME280;13176;51.140;6.290;2024-03-07T00:09:40;101749.75;;;10.45;74.87
25232;BME280;13176;51.140;6.290;2024-03-07T00:12:07;101748.94;;;10.53;73.39
25232;BME280;13176;51.140;6.290;2024-03-07T00:14:34;101741.03;;;10.40;74.19
25232;BME280;13176;51.140;6.290;2024-03-07T00:17:01;101761.06;;;10.39;74.14
25232;BME280;13176;51.140;6.290;2024-03-07T00:19:29;101761.94;;;10.37;73.34
25232;BME280;13176;51.140;6.290;2024-03-07T00:21:56;101638.88;;;9.40;74.51
25232;BME280;13176;51.140;6.290;2024-03-07T00:24:23;101766.13;;;10.10;75.65
25232;BME280;13176;51.140;6.290;2024-03-07T00:26:50;101750.34;;;9.92;77.39
25232;BME280;13176;51.140;6.290;2024-03-07T00:29:18;101768.69;;;10.02;76.89
25232;BME280;13176;51.140;6.290;2024-03-07T00:31:47;101750.41;;;9.99;76.81
25232;BME280;13176;51.140;6.290;2024-03-07T00:34:14;101763.59;;;10.24;76.56
25232;BME280;13176;51.140;6.290;2024-03-07T00:36:50;101656.44;;;9.74;77.50
25232;BME280;13176;51.140;6.290;2024-03-07T00:39:18;101686.22;;;10.29;76.34
25232;BME280;13176;51.140;6.290;2024-03-07T00:41:46;101686.31;;;10.50;76.39
25232;BME280;13176;51.140;6.290;2024-03-07T00:44:12;101719.41;;;10.78;75.08
25232;BME280;13176;51.140;6.290;2024-03-07T00:46:38;101743.81;;;10.95;75.38
25232;BME280;13176;51.140;6.290;2024-03-07T00:49:05;101715.94;;;10.73;76.44
25232;BME280;13176;51.140;6.290;2024-03-07T00:51:31;101723.81;;;10.88;75.39
25232;BME280;13176;51.140;6.290;2024-03-07T00:53:58;101714.19;;;10.93;75.06
25232;BME280;13176;51.140;6.290;2024-03-07T00:56:24;101737.72;;;11.02;75.30
25232;BME280;13176;51.140;6.290;2024-03-07T00:58:51;101753.41;;;11.19;75.76
25232;BME280;13176;51.140;6.290;2024-03-07T01:01:18;101699.41;;;10.80;75.12
25232;BME280;13176;51.140;6.290;2024-03-07T01:03:47;101744.69;;;11.11;75.07
25232;BME280;13176;51.140;6.290;2024-03-07T01:06:13;101731.63;;;11.03;75.16
25232;BME280;13176;51.140;6.290;2024-03-07T01:08:40;101742.06;;;11.03;74.57
25232;BME280;13176;51.140;6.290;2024-03-07T01:11:06;101686.34;;;10.71;74.54
25232;BME280;13176;51.140;6.290;2024-03-07T01:13:40;101724.66;;;10.96;74.99
25232;BME280;13176;51.140;6.290;2024-03-07T01:16:07;101683.72;;;10.58;74.72
25232;BME280;13176;51.140;6.290;2024-03-07T01:18:34;101580.16;;;10.17;74.80
25232;BME280;13176;51.140;6.290;2024-03-07T01:21:02;101702.06;;;10.92;75.18
25232;BME280;13176;51.140;6.290;2024-03-07T01:23:29;101731.63;;;10.97;75.21
25232;BME280;13176;51.140;6.290;2024-03-07T01:25:56;101713.34;;;11.00;75.07
25232;BME280;13176;51.140;6.290;2024-03-07T01:28:24;101698.56;;;10.92;74.66
25232;BME280;13176;51.140;6.290;2024-03-07T01:30:50;101689.84;;;11.03;74.95
25232;BME280;13176;51.140;6.290;2024-03-07T01:33:17;101702.03;;;10.95;75.33
25232;BME280;13176;51.140;6.290;2024-03-07T01:35:43;101682.03;;;10.91;75.30
25232;BME280;13176;51.140;6.290;2024-03-07T01:38:10;101696.81;;;11.04;74.86
25232;BME280;13176;51.140;6.290;2024-03-07T01:40:37;101691.59;;;11.10;74.54
25232;BME280;13176;51.140;6.290;2024-03-07T01:43:03;101716.84;;;11.23;75.11
25232;BME280;13176;51.140;6.290;2024-03-07T01:45:31;101698.56;;;11.08;74.69
25232;BME280;13176;51.140;6.290;2024-03-07T01:47:59;101719.44;;;11.29;74.08
25232;BME280;13176;51.140;6.290;2024-03-07T01:50:25;101644.59;;;10.77;74.03
25232;BME280;13176;51.140;6.290;2024-03-07T01:52:52;101712.50;;;11.10;75.07
25232;BME280;13176;51.140;6.290;2024-03-07T01:55:22;101722.94;;;11.19;75.23
25232;BME280;13176;51.140;6.290;2024-03-07T01:57:49;101688.97;;;10.98;74.96
25232;BME280;13176;51.140;6.290;2024-03-07T02:00:16;101701.19;;;10.90;75.17
25232;BME280;13176;51.140;6.290;2024-03-07T02:02:45;101681.13;;;10.68;75.59
25232;BME280;13176;51.140;6.290;2024-03-07T02:05:12;101664.56;;;10.60;76.16
25232;BME280;13176;51.140;6.290;2024-03-07T02:07:40;101679.34;;;10.61;75.83
25232;BME280;13176;51.140;6.290;2024-03-07T02:10:06;101688.94;;;10.50;76.80
25232;BME280;13176;51.140;6.290;2024-03-07T02:12:35;101707.19;;;10.53;76.53
25232;BME280;13176;51.140;6.290;2024-03-07T02:15:02;101683.66;;;10.35;76.25
25232;BME280;13176;51.140;6.290;2024-03-07T02:17:29;101687.06;;;10.15;76.91
25232;BME280;13176;51.140;6.290;2024-03-07T02:19:55;101663.44;;;9.90;77.31
25232;BME280;13176;51.140;6.290;2024-03-07T02:22:22;101631.19;;;9.62;77.89
25232;BME280;13176;51.140;6.290;2024-03-07T02:24:48;101633.72;;;9.52;78.90
25232;BME280;13176;51.140;6.290;2024-03-07T02:27:14;101638.94;;;9.52;78.45
25232;BME280;13176;51.140;6.290;2024-03-07T02:29:41;101666.75;;;9.59;79.61
25232;BME280;13176;51.140;6.290;2024-03-07T02:32:08;101670.19;;;9.52;79.71
25232;BME280;13176;51.140;6.290;2024-03-07T02:34:36;101677.09;;;9.45;80.14
25232;BME280;13176;51.140;6.290;2024-03-07T02:37:02;101652.81;;;9.45;79.50
25232;BME280;13176;51.140;6.290;2024-03-07T02:39:28;101673.75;;;9.63;79.64
25232;BME280;13176;51.140;6.290;2024-03-07T02:41:55;101656.34;;;9.59;79.33
25232;BME280;13176;51.140;6.290;2024-03-07T02:44:22;101679.00;;;9.72;79.66
25232;BME280;13176;51.140;6.290;2024-03-07T02:46:48;101645.91;;;9.59;79.17
25232;BME280;13176;51.140;6.290;2024-03-07T02:49:15;101686.00;;;9.79;80.29
25232;BME280;13176;51.140;6.290;2024-03-07T02:51:41;101680.78;;;9.79;79.89
25232;BME280;13176;51.140;6.290;2024-03-07T02:54:08;101654.69;;;9.73;79.40
25232;BME280;13176;51.140;6.290;2024-03-07T02:56:34;101680.84;;;9.94;79.42
25232;BME280;13176;51.140;6.290;2024-03-07T02:59:01;101598.94;;;9.38;78.80
25232;BME280;13176;51.140;6.290;2024-03-07T03:01:30;101593.72;;;9.35;78.94
25232;BME280;13176;51.140;6.290;2024-03-07T03:03:57;101623.22;;;9.34;79.88
25232;BME280;13176;51.140;6.290;2024-03-07T03:06:23;101659.75;;;9.43;80.44
25232;BME280;13176;51.140;6.290;2024-03-07T03:08:49;101611.69;;;8.99;80.15
25232;BME280;13176;51.140;6.290;2024-03-07T03:11:16;101593.25;;;8.69;80.50
25232;BME280;13176;51.140;6.290;2024-03-07T03:13:43;101642.88;;;8.93;81.29
25232;BME280;13176;51.140;6.290;2024-03-07T03:16:09;101649.84;;;8.99;81.55
25232;BME280;13176;51.140;6.290;2024-03-07T03:18:36;101637.59;;;8.83;81.65
25232;BME280;13176;51.140;6.290;2024-03-07T03:21:02;101649.72;;;8.82;81.80
25232;BME280;13176;51.140;6.290;2024-03-07T03:23:29;101673.25;;;8.94;81.83
25232;BME280;13176;51.140;6.290;2024-03-07T03:25:56;101676.81;;;9.05;81.06
25232;BME280;13176;51.140;6.290;2024-03-07T03:28:23;101657.69;;;9.02;80.64
25232;BME280;13176;51.140;6.290;2024-03-07T03:30:50;101628.09;;;8.89;80.85
25232;BME280;13176;51.140;6.290;2024-03-07T03:33:19;101649.09;;;9.10;80.91
25232;BME280;13176;51.140;6.290;2024-03-07T03:35:47;101639.53;;;9.10;80.13
25232;BME280;13176;51.140;6.290;2024-03-07T03:38:13;101663.06;;;9.24;79.19
25232;BME280;13176;51.140;6.290;2024-03-07T03:40:40;101635.19;;;9.05;78.99
25232;BME280;13176;51.140;6.290;2024-03-07T03:43:06;101602.97;;;8.91;79.56
25232;BME280;13176;51.140;6.290;2024-03-07T03:45:33;101641.22;;;9.02;78.96
25232;BME280;13176;51.140;6.290;2024-03-07T03:48:00;101612.38;;;8.77;80.07
25232;BME280;13176;51.140;6.290;2024-03-07T03:50:27;101651.69;;;9.07;79.57
25232;BME280;13176;51.140;6.290;2024-03-07T03:52:55;101663.03;;;9.18;80.64
25232;BME280;13176;51.140;6.290;2024-03-07T03:55:21;101642.13;;;9.06;79.51
25232;BME280;13176;51.140;6.290;2024-03-07T03:57:48;101648.19;;;9.06;79.64
25232;BME280;13176;51.140;6.290;2024-03-07T04:00:16;101619.47;;;8.92;80.07
25232;BME280;13176;51.140;6.290;2024-03-07T04:02:45;101634.28;;;9.04;79.89
25232;BME280;13176;51.140;6.290;2024-03-07T04:05:17;101657.06;;;9.34;79.65
25232;BME280;13176;51.140;6.290;2024-03-07T04:07:44;101657.13;;;9.44;79.32
25232;BME280;13176;51.140;6.290;2024-03-07T04:10:12;101643.22;;;9.38;79.19
25232;BME280;13176;51.140;6.290;2024-03-07T04:12:40;101640.59;;;9.39;78.84
25232;BME280;13176;51.140;6.290;2024-03-07T04:15:08;101548.25;;;8.82;79.73
25232;BME280;13176;51.140;6.290;2024-03-07T04:17:36;101562.25;;;8.99;79.42
25232;BME280;13176;51.140;6.290;2024-03-07T04:20:05;101627.53;;;9.29;78.62
25232;BME280;13176;51.140;6.290;2024-03-07T04:22:35;101629.22;;;9.22;78.71
25232;BME280;13176;51.140;6.290;2024-03-07T04:25:02;101643.16;;;9.33;78.64
25232;BME280;13176;51.140;6.290;2024-03-07T04:27:29;101636.13;;;9.19;78.11
25232;BME280;13176;51.140;6.290;2024-03-07T04:29:55;101588.19;;;8.90;78.32
25232;BME280;13176;51.140;6.290;2024-03-07T04:32:22;101632.63;;;9.17;78.58
25232;BME280;13176;51.140;6.290;2024-03-07T04:34:49;101623.06;;;9.10;78.90
25232;BME280;13176;51.140;6.290;2024-03-07T04:37:16;101610.84;;;9.00;78.69
25232;BME280;13176;51.140;6.290;2024-03-07T04:39:42;101622.88;;;8.86;77.87
25232;BME280;13176;51.140;6.290;2024-03-07T04:42:09;101614.09;;;8.72;78.68
25232;BME280;13176;51.140;6.290;2024-03-07T04:44:37;101654.16;;;8.92;78.78
25232;BME280;13176;51.140;6.290;2024-03-07T04:47:04;101630.63;;;8.80;78.73
25232;BME280;13176;51.140;6.290;2024-03-07T04:49:32;101627.97;;;8.71;79.59
25232;BME280;13176;51.140;6.290;2024-03-07T04:52:00;101603.53;;;8.54;78.96
25232;BME280;13176;51.140;6.290;2024-03-07T04:54:29;101647.13;;;8.82;78.51
25232;BME280;13176;51.140;6.290;2024-03-07T04:56:56;101633.09;;;8.65;78.84
25232;BME280;13176;51.140;6.290;2024-03-07T04:59:23;101634.78;;;8.60;78.98
25232;BME280;13176;51.140;6.290;2024-03-07T05:01:50;101565.09;;;8.23;78.47
25232;BME280;13176;51.140;6.290;2024-03-07T05:04:17;101635.72;;;8.65;80.46
25232;BME280;13176;51.140;6.290;2024-03-07T05:06:44;101652.25;;;8.76;79.75
25232;BME280;13176;51.140;6.290;2024-03-07T05:09:11;101598.34;;;8.59;79.08
25232;BME280;13176;51.140;6.290;2024-03-07T05:11:49;101627.13;;;8.77;78.54
25232;BME280;13176;51.140;6.290;2024-03-07T05:14:18;101639.28;;;8.79;78.66
25232;BME280;13176;51.140;6.290;2024-03-07T05:16:45;101654.13;;;8.89;78.40
25232;BME280;13176;51.140;6.290;2024-03-07T05:19:12;101639.22;;;8.70;78.01
25232;BME280;13176;51.140;6.290;2024-03-07T05:21:38;101580.06;;;8.48;78.23
25232;BME280;13176;51.140;6.290;2024-03-07T05:24:07;101649.13;;;9.19;77.67
25232;BME280;13176;51.140;6.290;2024-03-07T05:26:35;101640.44;;;9.17;77.83
25232;BME280;13176;51.140;6.290;2024-03-07T05:29:08;101637.94;;;9.27;77.45
25232;BME280;13176;51.140;6.290;2024-03-07T05:31:36;101657.84;;;9.21;77.13
25232;BME280;13176;51.140;6.290;2024-03-07T05:34:04;101657.72;;;9.03;76.96
25232;BME280;13176;51.140;6.290;2024-03-07T05:36:37;101648.81;;;8.80;77.42
25232;BME280;13176;51.140;6.290;2024-03-07T05:39:16;101654.09;;;8.86;78.38
25232;BME280;13176;51.140;6.290;2024-03-07T05:41:44;101663.66;;;8.89;78.12
25232;BME280;13176;51.140;6.290;2024-03-07T05:44:12;101605.44;;;8.76;78.41
25232;BME280;13176;51.140;6.290;2024-03-07T05:46:39;101658.75;;;9.29;77.85
25232;BME280;13176;51.140;6.290;2024-03-07T05:49:13;101654.53;;;9.43;76.78
25232;BME280;13176;51.140;6.290;2024-03-07T05:51:40;101549.97;;;8.80;76.78
25232;BME280;13176;51.140;6.290;2024-03-07T05:54:08;101639.69;;;9.33;76.18
25232;BME280;13176;51.140;6.290;2024-03-07T05:56:35;101657.03;;;9.28;76.92
25232;BME280;13176;51.140;6.290;2024-03-07T05:59:02;101642.16;;;9.15;77.25
25232;BME280;13176;51.140;6.290;2024-03-07T06:01:33;101652.56;;;9.15;77.58
25232;BME280;13176;51.140;6.290;2024-03-07T06:04:01;101650.13;;;9.36;77.59
25232;BME280;13176;51.140;6.290;2024-03-07T06:06:31;101617.91;;;9.19;77.63
25232;BME280;13176;51.140;6.290;2024-03-07T06:09:01;101624.81;;;9.14;77.92
25232;BME280;13176;51.140;6.290;2024-03-07T06:11:37;101652.84;;;9.54;77.33
25232;BME280;13176;51.140;6.290;2024-03-07T06:14:05;101624.97;;;9.35;77.77
25232;BME280;13176;51.140;6.290;2024-03-07T06:16:35;101571.00;;;9.10;77.42
25232;BME280;13176;51.140;6.290;2024-03-07T06:19:05;101625.84;;;9.38;77.35
25232;BME280;13176;51.140;6.290;2024-03-07T06:21:38;101647.59;;;9.45;77.69
25232;BME280;13176;51.140;6.290;2024-03-07T06:24:09;101613.53;;;9.13;78.65
25232;BME280;13176;51.140;6.290;2024-03-07T06:26:38;101643.22;;;9.39;78.68
25232;BME280;13176;51.140;6.290;2024-03-07T06:29:08;101623.13;;;9.22;78.57
25232;BME280;13176;51.140;6.290;2024-03-07T06:31:34;101618.00;;;9.34;78.53
25232;BME280;13176;51.140;6.290;2024-03-07T06:34:01;101651.94;;;9.49;78.59
25232;BME280;13176;51.140;6.290;2024-03-07T06:36:27;101634.59;;;9.54;78.54
25232;BME280;13176;51.140;6.290;2024-03-07T06:38:54;101654.69;;;9.70;78.36
25232;BME280;13176;51.140;6.290;2024-03-07T06:41:21;101609.41;;;9.44;77.98
25232;BME280;13176;51.140;6.290;2024-03-07T06:43:47;101625.91;;;9.50;78.07
25232;BME280;13176;51.140;6.290;2024-03-07T06:46:16;101601.53;;;9.39;78.17
25232;BME280;13176;51.140;6.290;2024-03-07T06:48:43;101626.75;;;9.48;78.84
25232;BME280;13176;51.140;6.290;2024-03-07T06:51:10;101640.63;;;9.41;78.76
25232;BME280;13176;51.140;6.290;2024-03-07T06:53:37;101644.13;;;9.49;79.84
25232;BME280;13176;51.140;6.290;2024-03-07T06:56:03;101630.22;;;9.47;79.35
25232;BME280;13176;51.140;6.290;2024-03-07T06:58:30;101592.00;;;9.37;79.30
25232;BME280;13176;51.140;6.290;2024-03-07T07:00:59;101632.06;;;9.63;79.33
25232;BME280;13176;51.140;6.290;2024-03-07T07:03:27;101630.34;;;9.68;79.37
25232;BME280;13176;51.140;6.290;2024-03-07T07:05:56;101640.78;;;9.68;79.30
25232;BME280;13176;51.140;6.290;2024-03-07T07:08:22;101619.00;;;9.55;79.59
25232;BME280;13176;51.140;6.290;2024-03-07T07:10:50;101643.34;;;9.62;79.67
25232;BME280;13176;51.140;6.290;2024-03-07T07:13:16;101565.88;;;9.25;79.85
25232;BME280;13176;51.140;6.290;2024-03-07T07:15:43;101640.75;;;9.65;80.02
25232;BME280;13176;51.140;6.290;2024-03-07T07:18:09;101598.09;;;9.46;79.66
25232;BME280;13176;51.140;6.290;2024-03-07T07:20:36;101621.56;;;9.54;79.92
25232;BME280;13176;51.140;6.290;2024-03-07T07:23:04;101588.53;;;9.38;79.95
25232;BME280;13176;51.140;6.290;2024-03-07T07:25:30;101574.66;;;9.42;79.79
25232;BME280;13176;51.140;6.290;2024-03-07T07:27:57;101548.44;;;9.15;80.25
25232;BME280;13176;51.140;6.290;2024-03-07T07:30:24;101596.41;;;9.54;80.50
25232;BME280;13176;51.140;6.290;2024-03-07T07:32:51;101606.88;;;9.66;80.40
25232;BME280;13176;51.140;6.290;2024-03-07T07:35:18;101607.81;;;9.76;79.99
25232;BME280;13176;51.140;6.290;2024-03-07T07:37:50;101612.13;;;9.75;80.38
25232;BME280;13176;51.140;6.290;2024-03-07T07:40:19;101589.53;;;9.71;79.71
25232;BME280;13176;51.140;6.290;2024-03-07T07:42:48;101613.06;;;9.92;80.33
25232;BME280;13176;51.140;6.290;2024-03-07T07:45:16;101619.13;;;9.90;80.50
25232;BME280;13176;51.140;6.290;2024-03-07T07:47:44;101614.75;;;9.77;80.87
25232;BME280;13176;51.140;6.290;2024-03-07T07:50:13;101593.84;;;9.62;81.64
25232;BME280;13176;51.140;6.290;2024-03-07T07:52:41;101602.63;;;9.82;80.99
25232;BME280;13176;51.140;6.290;2024-03-07T07:55:08;101596.44;;;9.60;81.47
25232;BME280;13176;51.140;6.290;2024-03-07T07:57:41;101547.78;;;9.53;80.64
25232;BME280;13176;51.140;6.290;2024-03-07T08:00:13;101620.13;;;10.13;80.19
25232;BME280;13176;51.140;6.290;2024-03-07T08:02:55;101607.94;;;10.06;80.54
25232;BME280;13176;51.140;6.290;2024-03-07T08:05:26;101593.94;;;9.92;80.50
25232;BME280;13176;51.140;6.290;2024-03-07T08:07:55;101601.88;;;10.16;80.19
25232;BME280;13176;51.140;6.290;2024-03-07T08:10:27;101574.91;;;10.05;80.01
25232;BME280;13176;51.140;6.290;2024-03-07T08:13:00;101628.88;;;10.35;79.78
25232;BME280;13176;51.140;6.290;2024-03-07T08:15:30;101626.31;;;10.50;79.78
25232;BME280;13176;51.140;6.290;2024-03-07T08:17:57;101625.41;;;10.39;80.18
25232;BME280;13176;51.140;6.290;2024-03-07T08:20:25;101625.44;;;10.51;79.14
25232;BME280;13176;51.140;6.290;2024-03-07T08:22:53;101611.50;;;10.49;78.80
25232;BME280;13176;51.140;6.290;2024-03-07T08:25:22;101606.28;;;10.49;78.68
25232;BME280;13176;51.140;6.290;2024-03-07T08:27:53;101577.59;;;10.33;78.48
25232;BME280;13176;51.140;6.290;2024-03-07T08:30:20;101585.41;;;10.37;78.12
25232;BME280;13176;51.140;6.290;2024-03-07T08:32:53;101621.09;;;10.70;77.71
25232;BME280;13176;51.140;6.290;2024-03-07T08:35:20;101605.41;;;10.37;77.43
25232;BME280;13176;51.140;6.290;2024-03-07T08:37:51;101613.22;;;10.41;77.16
25232;BME280;13176;51.140;6.290;2024-03-07T08:40:26;101558.44;;;10.29;77.28
25232;BME280;13176;51.140;6.290;2024-03-07T08:42:55;101484.47;;;9.77;76.63
25232;BME280;13176;51.140;6.290;2024-03-07T08:45:23;101623.66;;;10.56;75.87
25232;BME280;13176;51.140;6.290;2024-03-07T08:47:51;101573.22;;;10.19;76.13
25232;BME280;13176;51.140;6.290;2024-03-07T08:50:18;101607.16;;;10.56;74.63
25232;BME280;13176;51.140;6.290;2024-03-07T08:52:46;101600.22;;;10.74;73.99
25232;BME280;13176;51.140;6.290;2024-03-07T08:55:22;101615.00;;;10.81;73.56
25232;BME280;13176;51.140;6.290;2024-03-07T08:57:48;101553.22;;;10.41;73.81
25232;BME280;13176;51.140;6.290;2024-03-07T09:00:17;101588.03;;;10.66;74.00
25232;BME280;13176;51.140;6.290;2024-03-07T09:02:57;101598.47;;;10.72;73.57
25232;BME280;13176;51.140;6.290;2024-03-07T09:05:27;101563.66;;;10.71;73.50
25232;BME280;13176;51.140;6.290;2024-03-07T09:07:54;101608.00;;;11.16;72.76
25232;BME280;13176;51.140;6.290;2024-03-07T09:10:22;101568.03;;;10.90;72.39
25232;BME280;13176;51.140;6.290;2024-03-07T09:12:51;101590.63;;;10.97;72.42
25232;BME280;13176;51.140;6.290;2024-03-07T09:15:19;101572.34;;;11.08;72.43
25232;BME280;13176;51.140;6.290;2024-03-07T09:17:48;101566.25;;;11.03;71.82
25232;BME280;13176;51.140;6.290;2024-03-07T09:20:15;101552.31;;;10.96;71.63
25232;BME280;13176;51.140;6.290;2024-03-07T09:22:46;101592.34;;;11.19;70.69
25232;BME280;13176;51.140;6.290;2024-03-07T09:25:17;101586.25;;;11.08;71.08
25232;BME280;13176;51.140;6.290;2024-03-07T09:27:45;101598.38;;;11.33;69.49
25232;BME280;13176;51.140;6.290;2024-03-07T09:30:12;101554.06;;;11.03;69.48
25232;BME280;13176;51.140;6.290;2024-03-07T09:32:41;101530.56;;;11.08;69.02
25232;BME280;13176;51.140;6.290;2024-03-07T09:35:08;101566.16;;;11.40;67.99
25232;BME280;13176;51.140;6.290;2024-03-07T09:37:40;101515.81;;;10.87;67.68
25232;BME280;13176;51.140;6.290;2024-03-07T09:40:08;101572.22;;;11.45;67.02
25232;BME280;13176;51.140;6.290;2024-03-07T09:42:42;101591.38;;;11.48;65.23
25232;BME280;13176;51.140;6.290;2024-03-07T09:45:14;101583.44;;;11.80;65.22
25232;BME280;13176;51.140;6.290;2024-03-07T09:47:42;101580.84;;;11.81;64.52
25232;BME280;13176;51.140;6.290;2024-03-07T09:50:10;101528.63;;;11.51;63.36
25232;BME280;13176;51.140;6.290;2024-03-07T09:52:38;101525.16;;;11.49;62.57
25232;BME280;13176;51.140;6.290;2024-03-07T09:55:06;101506.03;;;11.55;61.85
25232;BME280;13176;51.140;6.290;2024-03-07T09:57:35;101417.47;;;10.85;61.06
25232;BME280;13176;51.140;6.290;2024-03-07T10:00:02;101579.81;;;12.08;60.29
25232;BME280;13176;51.140;6.290;2024-03-07T10:02:31;101550.19;;;12.03;58.40
25232;BME280;13176;51.140;6.290;2024-03-07T10:04:58;101521.41;;;12.07;59.04
25232;BME280;13176;51.140;6.290;2024-03-07T10:07:26;101554.22;;;12.48;57.94
25232;BME280;13176;51.140;6.290;2024-03-07T10:09:52;101555.19;;;12.40;58.29
25232;BME280;13176;51.140;6.290;2024-03-07T10:12:22;101545.66;;;12.30;57.54
25232;BME280;13176;51.140;6.290;2024-03-07T10:14:49;101515.03;;;12.40;57.33
25232;BME280;13176;51.140;6.290;2024-03-07T10:17:17;101562.72;;;12.79;57.08
25232;BME280;13176;51.140;6.290;2024-03-07T10:19:48;101567.19;;;12.66;57.14
25232;BME280;13176;51.140;6.290;2024-03-07T10:22:17;101413.53;;;11.74;57.34
25232;BME280;13176;51.140;6.290;2024-03-07T10:24:51;101553.25;;;12.61;55.74
25232;BME280;13176;51.140;6.290;2024-03-07T10:27:25;101544.72;;;12.37;56.72
25232;BME280;13176;51.140;6.290;2024-03-07T10:29:52;101561.97;;;12.62;54.88
25232;BME280;13176;51.140;6.290;2024-03-07T10:32:22;101519.34;;;12.47;55.47
25232;BME280;13176;51.140;6.290;2024-03-07T10:34:53;101559.22;;;12.77;55.09
25232;BME280;13176;51.140;6.290;2024-03-07T10:37:21;101539.13;;;12.77;55.40
25232;BME280;13176;51.140;6.290;2024-03-07T10:39:48;101559.13;;;12.93;54.99
25232;BME280;13176;51.140;6.290;2024-03-07T10:42:18;101511.47;;;12.49;54.71
25232;BME280;13176;51.140;6.290;2024-03-07T10:44:46;101522.91;;;12.38;54.58
25232;BME280;13176;51.140;6.290;2024-03-07T10:47:18;101493.66;;;12.90;53.74
25232;BME280;13176;51.140;6.290;2024-03-07T10:53:15;101515.63;;;13.51;50.43
25232;BME280;13176;51.140;6.290;2024-03-07T10:55:53;101549.94;;;14.01;50.57
25232;BME280;13176;51.140;6.290;2024-03-07T11:00:56;101534.53;;;13.06;51.93
25232;BME280;13176;51.140;6.290;2024-03-07T11:03:25;101454.09;;;12.29;52.70
25232;BME280;13176;51.140;6.290;2024-03-07T11:05:52;101523.34;;;12.86;53.18
25232;BME280;13176;51.140;6.290;2024-03-07T11:08:19;101423.38;;;12.46;52.63
25232;BME280;13176;51.140;6.290;2024-03-07T11:10:47;101520.69;;;12.92;52.52
25232;BME280;13176;51.140;6.290;2024-03-07T11:13:14;101482.03;;;13.12;51.62
25232;BME280;13176;51.140;6.290;2024-03-07T11:15:43;101526.47;;;13.24;51.80
25232;BME280;13176;51.140;6.290;2024-03-07T11:18:10;101391.94;;;12.48;51.46
25232;BME280;13176;51.140;6.290;2024-03-07T11:20:40;101478.75;;;13.66;49.44
25232;BME280;13176;51.140;6.290;2024-03-07T11:23:30;101506.34;;;14.96;48.13
25232;BME280;13176;51.140;6.290;2024-03-07T11:26:02;101509.38;;;15.65;46.42
25232;BME280;13176;51.140;6.290;2024-03-07T11:28:35;101479.28;;;16.14;44.85
25232;BME280;13176;51.140;6.290;2024-03-07T11:34:15;101501.00;;;16.60;42.56
25232;BME280;13176;51.140;6.290;2024-03-07T11:36:46;101424.13;;;16.43;42.69
25232;BME280;13176;51.140;6.290;2024-03-07T11:39:41;101492.53;;;17.13;42.31
25232;BME280;13176;51.140;6.290;2024-03-07T11:42:19;101434.31;;;17.18;40.82
25232;BME280;13176;51.140;6.290;2024-03-07T11:44:48;101483.22;;;16.68;40.58
25232;BME280;13176;51.140;6.290;2024-03-07T11:47:15;101463.97;;;16.96;42.46
25232;BME280;13176;51.140;6.290;2024-03-07T11:49:45;101453.31;;;16.35;43.41
25232;BME280;13176;51.140;6.290;2024-03-07T11:52:15;101449.00;;;16.33;44.02
25232;BME280;13176;51.140;6.290;2024-03-07T11:54:43;101442.94;;;16.95;42.10
25232;BME280;13176;51.140;6.290;2024-03-07T11:57:15;101479.75;;;17.87;41.53
25232;BME280;13176;51.140;6.290;2024-03-07T11:59:42;101457.19;;;18.32;40.41
25232;BME280;13176;51.140;6.290;2024-03-07T12:02:13;101430.34;;;17.63;40.90
25232;BME280;13176;51.140;6.290;2024-03-07T12:04:44;101455.28;;;16.93;42.51
25232;BME280;13176;51.140;6.290;2024-03-07T12:07:10;101427.69;;;16.42;43.26
25232;BME280;13176;51.140;6.290;2024-03-07T12:09:38;101436.03;;;15.88;44.67
25232;BME280;13176;51.140;6.290;2024-03-07T12:12:08;101453.38;;;15.17;46.21
25232;BME280;13176;51.140;6.290;2024-03-07T12:14:36;101341.66;;;14.55;46.67
25232;BME280;13176;51.140;6.290;2024-03-07T12:17:02;101304.94;;;14.05;48.13
25232;BME280;13176;51.140;6.290;2024-03-07T12:19:32;101451.94;;;15.01;48.24
25232;BME280;13176;51.140;6.290;2024-03-07T12:22:03;101445.56;;;15.13;47.03
25232;BME280;13176;51.140;6.290;2024-03-07T12:24:30;101429.50;;;15.28;47.66
25232;BME280;13176;51.140;6.290;2024-03-07T12:29:33;101437.06;;;16.17;46.09
25232;BME280;13176;51.140;6.290;2024-03-07T12:32:00;101392.66;;;16.70;44.09
25232;BME280;13176;51.140;6.290;2024-03-07T12:34:26;101307.59;;;16.35;43.32
25232;BME280;13176;51.140;6.290;2024-03-07T12:36:57;101408.31;;;16.43;44.36
25232;BME280;13176;51.140;6.290;2024-03-07T12:39:24;101340.53;;;16.16;44.28
25232;BME280;13176;51.140;6.290;2024-03-07T12:41:52;101376.81;;;16.05;44.84
25232;BME280;13176;51.140;6.290;2024-03-07T12:44:22;101398.53;;;16.13;45.43
25232;BME280;13176;51.140;6.290;2024-03-07T12:46:51;101264.13;;;15.52;44.76
25232;BME280;13176;51.140;6.290;2024-03-07T12:49:22;101410.31;;;16.35;45.18
25232;BME280;13176;51.140;6.290;2024-03-07T12:51:54;101398.13;;;15.95;44.07
25232;BME280;13176;51.140;6.290;2024-03-07T12:54:20;101410.81;;;16.81;43.68
25232;BME280;13176;51.140;6.290;2024-03-07T12:56:48;101349.94;;;17.47;42.35
25232;BME280;13176;51.140;6.290;2024-03-07T12:59:18;101391.09;;;17.24;42.42
25232;BME280;13176;51.140;6.290;2024-03-07T13:01:47;101391.75;;;17.87;41.07
25232;BME280;13176;51.140;6.290;2024-03-07T13:04:51;101390.72;;;18.18;40.90
25232;BME280;13176;51.140;6.290;2024-03-07T13:07:18;101262.78;;;18.24;39.88
25232;BME280;13176;51.140;6.290;2024-03-07T13:09:52;101242.22;;;17.84;39.59
25232;BME280;13176;51.140;6.290;2024-03-07T13:12:19;101353.94;;;18.61;39.41
25232;BME280;13176;51.140;6.290;2024-03-07T13:14:45;101329.22;;;18.13;40.17